sensor_id;sensor_type;location;lat;lon;timestamp;P1;durP1;ratioP1;P2;durP2;ratioP2
22429;SDS011;11382;48.086;11.632;2023-11-19T00:00:25;3.45;;;2.63;;
22429;SDS011;11382;48.086;11.632;2023-11-19T00:02:54;3.20;;;2.45;;
22429;SDS011;11382;48.086;11.632;2023-11-19T00:05:21;3.40;;;2.53;;
22429;SDS011;11382;48.086;11.632;2023-11-19T00:07:49;2.92;;;2.50;;
22429;SDS011;11382;48.086;11.632;2023-11-19T00:10:17;2.28;;;2.08;;
22429;SDS011;11382;48.086;11.632;2023-11-19T00:12:47;3.25;;;2.20;;
22429;SDS011;11382;48.086;11.632;2023-11-19T00:15:17;2.58;;;1.98;;
22429;SDS011;11382;48.086;11.632;2023-11-19T00:17:46;2.38;;;2.08;;
22429;SDS011;11382;48.086;11.632;2023-11-19T00:20:16;2.10;;;1.90;;
22429;SDS011;11382;48.086;11.632;2023-11-19T00:22:45;4.65;;;2.17;;
22429;SDS011;11382;48.086;11.632;2023-11-19T00:25:16;1.73;;;1.55;;
22429;SDS011;11382;48.086;11.632;2023-11-19T00:27:44;1.67;;;1.42;;
22429;SDS011;11382;48.086;11.632;2023-11-19T00:30:13;2.83;;;2.00;;
22429;SDS011;11382;48.086;11.632;2023-11-19T00:32:43;3.10;;;2.20;;
22429;SDS011;11382;48.086;11.632;2023-11-19T00:35:12;3.53;;;2.55;;
22429;SDS011;11382;48.086;11.632;2023-11-19T00:37:41;2.55;;;2.10;;
22429;SDS011;11382;48.086;11.632;2023-11-19T00:40:12;2.55;;;2.15;;
22429;SDS011;11382;48.086;11.632;2023-11-19T00:42:42;2.53;;;1.90;;
22429;SDS011;11382;48.086;11.632;2023-11-19T00:45:10;2.90;;;1.77;;
22429;SDS011;11382;48.086;11.632;2023-11-19T00:47:39;1.75;;;1.58;;
22429;SDS011;11382;48.086;11.632;2023-11-19T00:50:09;1.80;;;1.55;;
22429;SDS011;11382;48.086;11.632;2023-11-19T00:52:39;2.35;;;1.52;;
22429;SDS011;11382;48.086;11.632;2023-11-19T00:55:07;2.55;;;2.03;;
22429;SDS011;11382;48.086;11.632;2023-11-19T00:57:35;2.40;;;1.70;;
22429;SDS011;11382;48.086;11.632;2023-11-19T01:00:04;2.53;;;1.95;;
22429;SDS011;11382;48.086;11.632;2023-11-19T01:02:39;2.00;;;1.80;;
22429;SDS011;11382;48.086;11.632;2023-11-19T01:05:08;2.75;;;1.92;;
22429;SDS011;11382;48.086;11.632;2023-11-19T01:07:41;2.33;;;1.80;;
22429;SDS011;11382;48.086;11.632;2023-11-19T01:10:09;2.20;;;1.80;;
22429;SDS011;11382;48.086;11.632;2023-11-19T01:12:38;2.28;;;2.08;;
22429;SDS011;11382;48.086;11.632;2023-11-19T01:15:06;2.42;;;2.20;;
22429;SDS011;11382;48.086;11.632;2023-11-19T01:17:35;3.92;;;2.08;;
22429;SDS011;11382;48.086;11.632;2023-11-19T01:20:04;2.50;;;1.92;;
22429;SDS011;11382;48.086;11.632;2023-11-19T01:22:35;2.10;;;1.90;;
22429;SDS011;11382;48.086;11.632;2023-11-19T01:25:04;2.15;;;1.73;;
22429;SDS011;11382;48.086;11.632;2023-11-19T01:27:32;2.90;;;1.77;;
22429;SDS011;11382;48.086;11.632;2023-11-19T01:30:01;2.17;;;1.83;;
22429;SDS011;11382;48.086;11.632;2023-11-19T01:32:30;2.45;;;1.85;;
22429;SDS011;11382;48.086;11.632;2023-11-19T01:34:58;2.45;;;2.00;;
22429;SDS011;11382;48.086;11.632;2023-11-19T01:37:27;2.22;;;1.90;;
22429;SDS011;11382;48.086;11.632;2023-11-19T01:39:56;2.53;;;1.60;;
22429;SDS011;11382;48.086;11.632;2023-11-19T01:42:25;2.28;;;1.73;;
22429;SDS011;11382;48.086;11.632;2023-11-19T01:44:55;2.13;;;1.42;;
22429;SDS011;11382;48.086;11.632;2023-11-19T01:47:25;2.65;;;1.67;;
22429;SDS011;11382;48.086;11.632;2023-11-19T01:49:54;1.92;;;1.77;;
22429;SDS011;11382;48.086;11.632;2023-11-19T01:52:23;3.55;;;1.70;;
22429;SDS011;11382;48.086;11.632;2023-11-19T01:54:53;2.05;;;1.85;;
22429;SDS011;11382;48.086;11.632;2023-11-19T01:57:23;2.08;;;1.77;;
22429;SDS011;11382;48.086;11.632;2023-11-19T01:59:51;2.35;;;1.60;;
22429;SDS011;11382;48.086;11.632;2023-11-19T02:02:20;2.75;;;1.70;;
22429;SDS011;11382;48.086;11.632;2023-11-19T02:04:49;2.03;;;1.80;;
22429;SDS011;11382;48.086;11.632;2023-11-19T02:07:18;2.28;;;1.70;;
22429;SDS011;11382;48.086;11.632;2023-11-19T02:09:47;1.70;;;1.42;;
22429;SDS011;11382;48.086;11.632;2023-11-19T02:12:15;2.25;;;1.42;;
22429;SDS011;11382;48.086;11.632;2023-11-19T02:14:44;3.22;;;1.70;;
22429;SDS011;11382;48.086;11.632;2023-11-19T02:17:24;2.92;;;2.38;;
22429;SDS011;11382;48.086;11.632;2023-11-19T02:19:53;2.53;;;1.77;;
22429;SDS011;11382;48.086;11.632;2023-11-19T02:22:21;4.22;;;2.05;;
22429;SDS011;11382;48.086;11.632;2023-11-19T02:24:51;1.73;;;1.50;;
22429;SDS011;11382;48.086;11.632;2023-11-19T02:27:30;1.60;;;1.50;;
22429;SDS011;11382;48.086;11.632;2023-11-19T02:30:06;1.35;;;1.17;;
22429;SDS011;11382;48.086;11.632;2023-11-19T02:32:35;1.08;;;0.93;;
22429;SDS011;11382;48.086;11.632;2023-11-19T02:35:05;2.65;;;1.30;;
22429;SDS011;11382;48.086;11.632;2023-11-19T02:37:35;1.58;;;1.35;;
22429;SDS011;11382;48.086;11.632;2023-11-19T02:40:03;2.17;;;1.33;;
22429;SDS011;11382;48.086;11.632;2023-11-19T02:42:35;3.00;;;1.10;;
22429;SDS011;11382;48.086;11.632;2023-11-19T02:45:04;2.50;;;1.08;;
22429;SDS011;11382;48.086;11.632;2023-11-19T02:47:33;1.10;;;1.00;;
22429;SDS011;11382;48.086;11.632;2023-11-19T02:50:02;1.23;;;0.90;;
22429;SDS011;11382;48.086;11.632;2023-11-19T02:52:33;0.98;;;0.88;;
22429;SDS011;11382;48.086;11.632;2023-11-19T02:55:04;2.00;;;0.90;;
22429;SDS011;11382;48.086;11.632;2023-11-19T02:57:36;1.00;;;0.95;;
22429;SDS011;11382;48.086;11.632;2023-11-19T03:00:06;0.77;;;0.70;;
22429;SDS011;11382;48.086;11.632;2023-11-19T03:02:39;1.38;;;0.77;;
22429;SDS011;11382;48.086;11.632;2023-11-19T03:07:41;1.20;;;0.80;;
22429;SDS011;11382;48.086;11.632;2023-11-19T03:10:12;1.35;;;0.70;;
22429;SDS011;11382;48.086;11.632;2023-11-19T03:12:41;0.93;;;0.80;;
22429;SDS011;11382;48.086;11.632;2023-11-19T03:15:13;1.85;;;0.85;;
22429;SDS011;11382;48.086;11.632;2023-11-19T03:17:41;1.00;;;0.80;;
22429;SDS011;11382;48.086;11.632;2023-11-19T03:20:10;0.90;;;0.63;;
22429;SDS011;11382;48.086;11.632;2023-11-19T03:22:41;1.38;;;0.75;;
22429;SDS011;11382;48.086;11.632;2023-11-19T03:25:10;0.93;;;0.63;;
22429;SDS011;11382;48.086;11.632;2023-11-19T03:27:39;1.83;;;0.57;;
22429;SDS011;11382;48.086;11.632;2023-11-19T03:30:09;0.82;;;0.60;;
22429;SDS011;11382;48.086;11.632;2023-11-19T03:32:39;0.88;;;0.60;;
22429;SDS011;11382;48.086;11.632;2023-11-19T03:35:07;0.70;;;0.70;;
22429;SDS011;11382;48.086;11.632;2023-11-19T03:37:36;0.50;;;0.50;;
22429;SDS011;11382;48.086;11.632;2023-11-19T03:40:04;2.50;;;0.90;;
22429;SDS011;11382;48.086;11.632;2023-11-19T03:42:34;0.70;;;0.60;;
22429;SDS011;11382;48.086;11.632;2023-11-19T03:45:02;3.50;;;0.80;;
22429;SDS011;11382;48.086;11.632;2023-11-19T03:47:30;1.42;;;0.80;;
22429;SDS011;11382;48.086;11.632;2023-11-19T03:50:00;0.77;;;0.70;;
22429;SDS011;11382;48.086;11.632;2023-11-19T03:52:29;0.60;;;0.50;;
22429;SDS011;11382;48.086;11.632;2023-11-19T03:55:08;0.82;;;0.63;;
22429;SDS011;11382;48.086;11.632;2023-11-19T03:57:38;1.15;;;0.50;;
22429;SDS011;11382;48.086;11.632;2023-11-19T04:00:07;0.98;;;0.70;;
22429;SDS011;11382;48.086;11.632;2023-11-19T04:02:39;0.70;;;0.55;;
22429;SDS011;11382;48.086;11.632;2023-11-19T04:05:09;0.90;;;0.57;;
22429;SDS011;11382;48.086;11.632;2023-11-19T04:07:37;0.55;;;0.50;;
22429;SDS011;11382;48.086;11.632;2023-11-19T04:10:05;1.20;;;0.60;;
22429;SDS011;11382;48.086;11.632;2023-11-19T04:12:35;0.95;;;0.60;;
22429;SDS011;11382;48.086;11.632;2023-11-19T04:15:03;1.00;;;0.80;;
22429;SDS011;11382;48.086;11.632;2023-11-19T04:17:32;0.80;;;0.80;;
22429;SDS011;11382;48.086;11.632;2023-11-19T04:20:00;0.95;;;0.60;;
22429;SDS011;11382;48.086;11.632;2023-11-19T04:22:31;1.17;;;0.50;;
22429;SDS011;11382;48.086;11.632;2023-11-19T04:24:59;0.82;;;0.60;;
22429;SDS011;11382;48.086;11.632;2023-11-19T04:27:27;1.23;;;0.60;;
22429;SDS011;11382;48.086;11.632;2023-11-19T04:29:56;2.88;;;0.50;;
22429;SDS011;11382;48.086;11.632;2023-11-19T04:32:24;0.55;;;0.50;;
22429;SDS011;11382;48.086;11.632;2023-11-19T04:34:53;0.82;;;0.57;;
22429;SDS011;11382;48.086;11.632;2023-11-19T04:37:21;0.50;;;0.40;;
22429;SDS011;11382;48.086;11.632;2023-11-19T04:39:50;1.95;;;0.60;;
22429;SDS011;11382;48.086;11.632;2023-11-19T04:42:18;1.15;;;0.47;;
22429;SDS011;11382;48.086;11.632;2023-11-19T04:44:46;0.75;;;0.60;;
22429;SDS011;11382;48.086;11.632;2023-11-19T04:47:14;0.68;;;0.65;;
22429;SDS011;11382;48.086;11.632;2023-11-19T04:49:42;0.85;;;0.52;;
22429;SDS011;11382;48.086;11.632;2023-11-19T04:52:10;1.77;;;0.63;;
22429;SDS011;11382;48.086;11.632;2023-11-19T04:54:40;1.70;;;0.60;;
22429;SDS011;11382;48.086;11.632;2023-11-19T04:57:11;0.60;;;0.60;;
22429;SDS011;11382;48.086;11.632;2023-11-19T04:59:39;0.70;;;0.60;;
22429;SDS011;11382;48.086;11.632;2023-11-19T05:02:08;0.65;;;0.65;;
22429;SDS011;11382;48.086;11.632;2023-11-19T05:04:36;0.60;;;0.50;;
22429;SDS011;11382;48.086;11.632;2023-11-19T05:07:05;1.30;;;0.60;;
22429;SDS011;11382;48.086;11.632;2023-11-19T05:09:33;0.85;;;0.70;;
22429;SDS011;11382;48.086;11.632;2023-11-19T05:12:01;0.60;;;0.55;;
22429;SDS011;11382;48.086;11.632;2023-11-19T05:14:31;0.75;;;0.65;;
22429;SDS011;11382;48.086;11.632;2023-11-19T05:16:59;1.20;;;0.70;;
22429;SDS011;11382;48.086;11.632;2023-11-19T05:19:27;2.60;;;0.77;;
22429;SDS011;11382;48.086;11.632;2023-11-19T05:21:55;1.00;;;0.80;;
22429;SDS011;11382;48.086;11.632;2023-11-19T05:24:23;1.73;;;0.80;;
22429;SDS011;11382;48.086;11.632;2023-11-19T05:26:51;1.05;;;0.68;;
22429;SDS011;11382;48.086;11.632;2023-11-19T05:29:19;1.33;;;0.73;;
22429;SDS011;11382;48.086;11.632;2023-11-19T05:31:49;0.80;;;0.50;;
22429;SDS011;11382;48.086;11.632;2023-11-19T05:34:17;1.30;;;0.70;;
22429;SDS011;11382;48.086;11.632;2023-11-19T05:36:45;1.25;;;0.70;;
22429;SDS011;11382;48.086;11.632;2023-11-19T05:39:13;1.08;;;0.50;;
22429;SDS011;11382;48.086;11.632;2023-11-19T05:41:42;0.68;;;0.50;;
22429;SDS011;11382;48.086;11.632;2023-11-19T05:44:20;0.70;;;0.70;;
22429;SDS011;11382;48.086;11.632;2023-11-19T05:46:50;1.48;;;0.60;;
22429;SDS011;11382;48.086;11.632;2023-11-19T05:49:18;1.08;;;0.50;;
22429;SDS011;11382;48.086;11.632;2023-11-19T05:51:46;1.67;;;0.60;;
22429;SDS011;11382;48.086;11.632;2023-11-19T05:54:14;0.50;;;0.50;;
22429;SDS011;11382;48.086;11.632;2023-11-19T05:56:46;0.55;;;0.52;;
22429;SDS011;11382;48.086;11.632;2023-11-19T05:59:15;1.10;;;0.70;;
22429;SDS011;11382;48.086;11.632;2023-11-19T06:01:44;2.13;;;0.77;;
22429;SDS011;11382;48.086;11.632;2023-11-19T06:04:14;0.70;;;0.63;;
22429;SDS011;11382;48.086;11.632;2023-11-19T06:06:42;1.35;;;0.70;;
22429;SDS011;11382;48.086;11.632;2023-11-19T06:09:10;0.52;;;0.52;;
22429;SDS011;11382;48.086;11.632;2023-11-19T06:11:40;0.60;;;0.60;;
22429;SDS011;11382;48.086;11.632;2023-11-19T06:14:08;0.95;;;0.50;;
22429;SDS011;11382;48.086;11.632;2023-11-19T06:16:36;0.85;;;0.52;;
22429;SDS011;11382;48.086;11.632;2023-11-19T06:19:06;0.65;;;0.60;;
22429;SDS011;11382;48.086;11.632;2023-11-19T06:21:37;0.30;;;0.30;;
22429;SDS011;11382;48.086;11.632;2023-11-19T06:24:05;0.90;;;0.40;;
22429;SDS011;11382;48.086;11.632;2023-11-19T06:26:35;1.27;;;0.80;;
22429;SDS011;11382;48.086;11.632;2023-11-19T06:29:03;0.85;;;0.60;;
22429;SDS011;11382;48.086;11.632;2023-11-19T06:31:31;0.40;;;0.40;;
22429;SDS011;11382;48.086;11.632;2023-11-19T06:33:59;0.57;;;0.50;;
22429;SDS011;11382;48.086;11.632;2023-11-19T06:36:27;0.32;;;0.32;;
22429;SDS011;11382;48.086;11.632;2023-11-19T06:38:56;1.60;;;0.45;;
22429;SDS011;11382;48.086;11.632;2023-11-19T06:41:24;0.60;;;0.55;;
22429;SDS011;11382;48.086;11.632;2023-11-19T06:43:52;0.45;;;0.45;;
22429;SDS011;11382;48.086;11.632;2023-11-19T06:46:20;0.35;;;0.35;;
22429;SDS011;11382;48.086;11.632;2023-11-19T06:48:48;0.30;;;0.28;;
22429;SDS011;11382;48.086;11.632;2023-11-19T06:51:16;0.52;;;0.50;;
22429;SDS011;11382;48.086;11.632;2023-11-19T06:53:44;0.20;;;0.20;;
22429;SDS011;11382;48.086;11.632;2023-11-19T06:56:20;0.30;;;0.30;;
22429;SDS011;11382;48.086;11.632;2023-11-19T06:58:49;0.22;;;0.20;;
22429;SDS011;11382;48.086;11.632;2023-11-19T07:01:17;0.20;;;0.20;;
22429;SDS011;11382;48.086;11.632;2023-11-19T07:03:45;0.28;;;0.28;;
22429;SDS011;11382;48.086;11.632;2023-11-19T07:06:14;0.52;;;0.25;;
22429;SDS011;11382;48.086;11.632;2023-11-19T07:08:42;0.40;;;0.40;;
22429;SDS011;11382;48.086;11.632;2023-11-19T07:11:12;1.23;;;0.40;;
22429;SDS011;11382;48.086;11.632;2023-11-19T07:13:41;0.17;;;0.17;;
22429;SDS011;11382;48.086;11.632;2023-11-19T07:16:10;0.10;;;0.10;;
22429;SDS011;11382;48.086;11.632;2023-11-19T07:18:38;1.65;;;0.30;;
22429;SDS011;11382;48.086;11.632;2023-11-19T07:21:06;0.50;;;0.38;;
22429;SDS011;11382;48.086;11.632;2023-11-19T07:23:37;0.52;;;0.30;;
22429;SDS011;11382;48.086;11.632;2023-11-19T07:26:05;2.92;;;0.30;;
22429;SDS011;11382;48.086;11.632;2023-11-19T07:28:35;0.80;;;0.20;;
22429;SDS011;11382;48.086;11.632;2023-11-19T07:31:05;0.40;;;0.20;;
22429;SDS011;11382;48.086;11.632;2023-11-19T07:33:34;0.35;;;0.25;;
22429;SDS011;11382;48.086;11.632;2023-11-19T07:36:02;0.22;;;0.20;;
22429;SDS011;11382;48.086;11.632;2023-11-19T07:38:30;0.20;;;0.20;;
22429;SDS011;11382;48.086;11.632;2023-11-19T07:40:58;0.28;;;0.20;;
22429;SDS011;11382;48.086;11.632;2023-11-19T07:43:26;0.32;;;0.22;;
22429;SDS011;11382;48.086;11.632;2023-11-19T07:45:54;0.40;;;0.32;;
22429;SDS011;11382;48.086;11.632;2023-11-19T07:48:26;1.50;;;0.20;;
22429;SDS011;11382;48.086;11.632;2023-11-19T07:50:54;0.20;;;0.20;;
22429;SDS011;11382;48.086;11.632;2023-11-19T07:53:23;0.20;;;0.20;;
22429;SDS011;11382;48.086;11.632;2023-11-19T07:55:51;0.30;;;0.22;;
22429;SDS011;11382;48.086;11.632;2023-11-19T07:58:19;0.20;;;0.20;;
22429;SDS011;11382;48.086;11.632;2023-11-19T08:00:47;0.20;;;0.20;;
22429;SDS011;11382;48.086;11.632;2023-11-19T08:03:15;0.30;;;0.25;;
22429;SDS011;11382;48.086;11.632;2023-11-19T08:05:44;0.35;;;0.20;;
22429;SDS011;11382;48.086;11.632;2023-11-19T08:08:13;0.30;;;0.30;;
22429;SDS011;11382;48.086;11.632;2023-11-19T08:10:41;0.20;;;0.20;;
22429;SDS011;11382;48.086;11.632;2023-11-19T08:13:09;0.75;;;0.22;;
22429;SDS011;11382;48.086;11.632;2023-11-19T08:15:38;1.55;;;0.40;;
22429;SDS011;11382;48.086;11.632;2023-11-19T08:18:06;0.40;;;0.20;;
22429;SDS011;11382;48.086;11.632;2023-11-19T08:20:35;0.30;;;0.30;;
22429;SDS011;11382;48.086;11.632;2023-11-19T08:23:05;0.25;;;0.20;;
22429;SDS011;11382;48.086;11.632;2023-11-19T08:25:34;0.20;;;0.20;;
22429;SDS011;11382;48.086;11.632;2023-11-19T08:28:01;0.20;;;0.20;;
22429;SDS011;11382;48.086;11.632;2023-11-19T08:30:30;0.30;;;0.17;;
22429;SDS011;11382;48.086;11.632;2023-11-19T08:32:58;0.15;;;0.15;;
22429;SDS011;11382;48.086;11.632;2023-11-19T08:35:29;0.50;;;0.20;;
22429;SDS011;11382;48.086;11.632;2023-11-19T08:37:57;0.25;;;0.20;;
22429;SDS011;11382;48.086;11.632;2023-11-19T08:40:27;0.68;;;0.30;;
22429;SDS011;11382;48.086;11.632;2023-11-19T08:42:56;0.60;;;0.25;;
22429;SDS011;11382;48.086;11.632;2023-11-19T08:45:24;0.32;;;0.20;;
22429;SDS011;11382;48.086;11.632;2023-11-19T08:47:52;0.95;;;0.45;;
22429;SDS011;11382;48.086;11.632;2023-11-19T08:50:20;1.50;;;0.32;;
22429;SDS011;11382;48.086;11.632;2023-11-19T08:52:49;0.20;;;0.20;;
22429;SDS011;11382;48.086;11.632;2023-11-19T08:55:17;0.50;;;0.30;;
22429;SDS011;11382;48.086;11.632;2023-11-19T08:57:46;0.40;;;0.20;;
22429;SDS011;11382;48.086;11.632;2023-11-19T09:00:14;0.20;;;0.20;;
22429;SDS011;11382;48.086;11.632;2023-11-19T09:02:44;0.30;;;0.30;;
22429;SDS011;11382;48.086;11.632;2023-11-19T09:05:12;0.52;;;0.20;;
22429;SDS011;11382;48.086;11.632;2023-11-19T09:07:40;0.10;;;0.10;;
22429;SDS011;11382;48.086;11.632;2023-11-19T09:10:08;0.43;;;0.30;;
22429;SDS011;11382;48.086;11.632;2023-11-19T09:12:37;0.45;;;0.40;;
22429;SDS011;11382;48.086;11.632;2023-11-19T09:15:07;0.30;;;0.30;;
22429;SDS011;11382;48.086;11.632;2023-11-19T09:17:36;0.35;;;0.20;;
22429;SDS011;11382;48.086;11.632;2023-11-19T09:20:05;0.28;;;0.28;;
22429;SDS011;11382;48.086;11.632;2023-11-19T09:22:35;0.40;;;0.30;;
22429;SDS011;11382;48.086;11.632;2023-11-19T09:25:03;0.52;;;0.40;;
22429;SDS011;11382;48.086;11.632;2023-11-19T09:27:31;0.80;;;0.40;;
22429;SDS011;11382;48.086;11.632;2023-11-19T09:29:59;0.35;;;0.30;;
22429;SDS011;11382;48.086;11.632;2023-11-19T09:32:29;0.28;;;0.22;;
22429;SDS011;11382;48.086;11.632;2023-11-19T09:34:57;1.85;;;0.28;;
22429;SDS011;11382;48.086;11.632;2023-11-19T09:37:25;0.82;;;0.50;;
22429;SDS011;11382;48.086;11.632;2023-11-19T09:39:53;0.60;;;0.40;;
22429;SDS011;11382;48.086;11.632;2023-11-19T09:42:21;1.02;;;0.40;;
22429;SDS011;11382;48.086;11.632;2023-11-19T09:44:51;0.30;;;0.30;;
22429;SDS011;11382;48.086;11.632;2023-11-19T09:47:22;0.93;;;0.20;;
22429;SDS011;11382;48.086;11.632;2023-11-19T09:49:52;1.42;;;0.47;;
22429;SDS011;11382;48.086;11.632;2023-11-19T09:52:23;1.10;;;0.50;;
22429;SDS011;11382;48.086;11.632;2023-11-19T09:54:51;0.65;;;0.30;;
22429;SDS011;11382;48.086;11.632;2023-11-19T09:57:19;1.77;;;0.47;;
22429;SDS011;11382;48.086;11.632;2023-11-19T09:59:47;0.25;;;0.20;;
22429;SDS011;11382;48.086;11.632;2023-11-19T10:02:16;0.63;;;0.30;;
22429;SDS011;11382;48.086;11.632;2023-11-19T10:04:45;0.60;;;0.50;;
22429;SDS011;11382;48.086;11.632;2023-11-19T10:07:17;0.70;;;0.50;;
22429;SDS011;11382;48.086;11.632;2023-11-19T10:09:46;1.67;;;0.43;;
22429;SDS011;11382;48.086;11.632;2023-11-19T10:12:14;0.63;;;0.40;;
22429;SDS011;11382;48.086;11.632;2023-11-19T10:14:43;0.93;;;0.40;;
22429;SDS011;11382;48.086;11.632;2023-11-19T10:17:13;0.40;;;0.38;;
22429;SDS011;11382;48.086;11.632;2023-11-19T10:19:41;0.50;;;0.38;;
22429;SDS011;11382;48.086;11.632;2023-11-19T10:22:09;1.02;;;0.40;;
22429;SDS011;11382;48.086;11.632;2023-11-19T10:24:39;0.50;;;0.40;;
22429;SDS011;11382;48.086;11.632;2023-11-19T10:27:14;0.65;;;0.40;;
22429;SDS011;11382;48.086;11.632;2023-11-19T10:29:43;0.35;;;0.30;;
22429;SDS011;11382;48.086;11.632;2023-11-19T10:32:13;0.68;;;0.40;;
22429;SDS011;11382;48.086;11.632;2023-11-19T10:34:52;0.30;;;0.30;;
22429;SDS011;11382;48.086;11.632;2023-11-19T10:37:31;0.80;;;0.40;;
22429;SDS011;11382;48.086;11.632;2023-11-19T10:40:03;0.40;;;0.40;;
22429;SDS011;11382;48.086;11.632;2023-11-19T10:42:32;0.25;;;0.25;;
22429;SDS011;11382;48.086;11.632;2023-11-19T10:45:00;0.47;;;0.40;;
22429;SDS011;11382;48.086;11.632;2023-11-19T10:47:28;0.28;;;0.28;;
22429;SDS011;11382;48.086;11.632;2023-11-19T10:50:00;1.08;;;0.28;;
22429;SDS011;11382;48.086;11.632;2023-11-19T10:52:28;0.30;;;0.20;;
22429;SDS011;11382;48.086;11.632;2023-11-19T10:54:56;0.75;;;0.30;;
22429;SDS011;11382;48.086;11.632;2023-11-19T10:57:32;0.70;;;0.38;;
22429;SDS011;11382;48.086;11.632;2023-11-19T11:00:04;0.73;;;0.43;;
22429;SDS011;11382;48.086;11.632;2023-11-19T11:02:40;0.85;;;0.30;;
22429;SDS011;11382;48.086;11.632;2023-11-19T11:05:09;0.30;;;0.30;;
22429;SDS011;11382;48.086;11.632;2023-11-19T11:07:38;0.75;;;0.50;;
22429;SDS011;11382;48.086;11.632;2023-11-19T11:10:08;0.20;;;0.20;;
22429;SDS011;11382;48.086;11.632;2023-11-19T11:12:39;0.17;;;0.10;;
22429;SDS011;11382;48.086;11.632;2023-11-19T11:15:09;0.25;;;0.25;;
22429;SDS011;11382;48.086;11.632;2023-11-19T11:17:38;0.30;;;0.30;;
22429;SDS011;11382;48.086;11.632;2023-11-19T11:20:09;0.38;;;0.38;;
22429;SDS011;11382;48.086;11.632;2023-11-19T11:22:39;0.47;;;0.20;;
22429;SDS011;11382;48.086;11.632;2023-11-19T11:25:19;0.25;;;0.22;;
22429;SDS011;11382;48.086;11.632;2023-11-19T11:28:13;1.10;;;0.20;;
22429;SDS011;11382;48.086;11.632;2023-11-19T11:30:54;0.75;;;0.47;;
22429;SDS011;11382;48.086;11.632;2023-11-19T11:33:34;0.63;;;0.40;;
22429;SDS011;11382;48.086;11.632;2023-11-19T11:36:11;0.30;;;0.30;;
22429;SDS011;11382;48.086;11.632;2023-11-19T11:38:46;0.20;;;0.20;;
22429;SDS011;11382;48.086;11.632;2023-11-19T11:41:16;0.68;;;0.40;;
22429;SDS011;11382;48.086;11.632;2023-11-19T11:43:51;0.20;;;0.20;;
22429;SDS011;11382;48.086;11.632;2023-11-19T11:49:27;1.48;;;0.30;;
22429;SDS011;11382;48.086;11.632;2023-11-19T11:51:59;0.50;;;0.20;;
22429;SDS011;11382;48.086;11.632;2023-11-19T11:54:29;0.38;;;0.30;;
22429;SDS011;11382;48.086;11.632;2023-11-19T11:59:49;0.30;;;0.30;;
22429;SDS011;11382;48.086;11.632;2023-11-19T12:02:19;0.30;;;0.22;;
22429;SDS011;11382;48.086;11.632;2023-11-19T12:04:49;0.30;;;0.30;;
22429;SDS011;11382;48.086;11.632;2023-11-19T12:07:19;0.25;;;0.25;;
22429;SDS011;11382;48.086;11.632;2023-11-19T12:09:51;0.20;;;0.20;;
22429;SDS011;11382;48.086;11.632;2023-11-19T12:12:22;1.27;;;0.30;;
22429;SDS011;11382;48.086;11.632;2023-11-19T12:15:01;0.43;;;0.20;;
22429;SDS011;11382;48.086;11.632;2023-11-19T12:17:41;0.30;;;0.30;;
22429;SDS011;11382;48.086;11.632;2023-11-19T12:20:16;0.50;;;0.30;;
22429;SDS011;11382;48.086;11.632;2023-11-19T12:23:00;0.15;;;0.15;;
22429;SDS011;11382;48.086;11.632;2023-11-19T12:25:34;1.02;;;0.30;;
22429;SDS011;11382;48.086;11.632;2023-11-19T12:28:02;0.30;;;0.30;;
22429;SDS011;11382;48.086;11.632;2023-11-19T12:30:33;0.80;;;0.47;;
22429;SDS011;11382;48.086;11.632;2023-11-19T12:33:07;0.20;;;0.20;;
22429;SDS011;11382;48.086;11.632;2023-11-19T12:35:38;0.73;;;0.20;;
22429;SDS011;11382;48.086;11.632;2023-11-19T12:38:06;1.23;;;0.30;;
22429;SDS011;11382;48.086;11.632;2023-11-19T12:40:34;0.80;;;0.30;;
22429;SDS011;11382;48.086;11.632;2023-11-19T12:43:02;0.57;;;0.45;;
22429;SDS011;11382;48.086;11.632;2023-11-19T12:45:36;0.47;;;0.30;;
22429;SDS011;11382;48.086;11.632;2023-11-19T12:48:05;0.22;;;0.22;;
22429;SDS011;11382;48.086;11.632;2023-11-19T12:50:49;0.52;;;0.40;;
22429;SDS011;11382;48.086;11.632;2023-11-19T12:53:18;0.30;;;0.22;;
22429;SDS011;11382;48.086;11.632;2023-11-19T12:55:46;0.40;;;0.40;;
22429;SDS011;11382;48.086;11.632;2023-11-19T12:58:30;1.65;;;1.17;;
22429;SDS011;11382;48.086;11.632;2023-11-19T13:03:31;3.08;;;0.35;;
22429;SDS011;11382;48.086;11.632;2023-11-19T13:06:01;0.20;;;0.20;;
22429;SDS011;11382;48.086;11.632;2023-11-19T13:08:35;0.20;;;0.20;;
22429;SDS011;11382;48.086;11.632;2023-11-19T13:11:05;0.30;;;0.30;;
22429;SDS011;11382;48.086;11.632;2023-11-19T13:16:25;1.08;;;0.20;;
22429;SDS011;11382;48.086;11.632;2023-11-19T13:18:54;0.35;;;0.30;;
22429;SDS011;11382;48.086;11.632;2023-11-19T13:21:23;0.47;;;0.20;;
22429;SDS011;11382;48.086;11.632;2023-11-19T13:23:51;0.35;;;0.35;;
22429;SDS011;11382;48.086;11.632;2023-11-19T13:26:19;0.32;;;0.30;;
22429;SDS011;11382;48.086;11.632;2023-11-19T13:28:47;0.43;;;0.38;;
22429;SDS011;11382;48.086;11.632;2023-11-19T13:31:15;0.40;;;0.30;;
22429;SDS011;11382;48.086;11.632;2023-11-19T13:33:45;0.73;;;0.30;;
22429;SDS011;11382;48.086;11.632;2023-11-19T13:36:13;0.40;;;0.40;;
22429;SDS011;11382;48.086;11.632;2023-11-19T13:38:43;0.45;;;0.40;;
22429;SDS011;11382;48.086;11.632;2023-11-19T13:41:11;0.63;;;0.30;;
22429;SDS011;11382;48.086;11.632;2023-11-19T13:43:40;0.40;;;0.30;;
22429;SDS011;11382;48.086;11.632;2023-11-19T13:46:08;0.55;;;0.50;;
22429;SDS011;11382;48.086;11.632;2023-11-19T13:48:37;0.73;;;0.30;;
22429;SDS011;11382;48.086;11.632;2023-11-19T13:51:07;0.90;;;0.40;;
22429;SDS011;11382;48.086;11.632;2023-11-19T13:53:36;0.80;;;0.30;;
22429;SDS011;11382;48.086;11.632;2023-11-19T13:56:07;0.70;;;0.40;;
22429;SDS011;11382;48.086;11.632;2023-11-19T13:58:36;0.50;;;0.30;;
22429;SDS011;11382;48.086;11.632;2023-11-19T14:01:04;0.43;;;0.30;;
22429;SDS011;11382;48.086;11.632;2023-11-19T14:03:33;0.82;;;0.25;;
22429;SDS011;11382;48.086;11.632;2023-11-19T14:06:01;0.88;;;0.40;;
22429;SDS011;11382;48.086;11.632;2023-11-19T14:08:31;0.80;;;0.38;;
22429;SDS011;11382;48.086;11.632;2023-11-19T14:10:59;0.60;;;0.40;;
22429;SDS011;11382;48.086;11.632;2023-11-19T14:13:27;0.70;;;0.57;;
22429;SDS011;11382;48.086;11.632;2023-11-19T14:15:55;0.45;;;0.45;;
22429;SDS011;11382;48.086;11.632;2023-11-19T14:18:23;0.57;;;0.40;;
22429;SDS011;11382;48.086;11.632;2023-11-19T14:20:51;0.30;;;0.30;;
22429;SDS011;11382;48.086;11.632;2023-11-19T14:23:19;1.88;;;0.60;;
22429;SDS011;11382;48.086;11.632;2023-11-19T14:25:49;0.70;;;0.60;;
22429;SDS011;11382;48.086;11.632;2023-11-19T14:28:17;1.25;;;0.50;;
22429;SDS011;11382;48.086;11.632;2023-11-19T14:30:45;0.45;;;0.40;;
22429;SDS011;11382;48.086;11.632;2023-11-19T14:33:20;0.30;;;0.25;;
22429;SDS011;11382;48.086;11.632;2023-11-19T14:35:48;0.47;;;0.30;;
22429;SDS011;11382;48.086;11.632;2023-11-19T14:38:15;0.30;;;0.30;;
22429;SDS011;11382;48.086;11.632;2023-11-19T14:40:43;0.30;;;0.30;;
22429;SDS011;11382;48.086;11.632;2023-11-19T14:43:13;0.32;;;0.28;;
22429;SDS011;11382;48.086;11.632;2023-11-19T14:45:41;0.43;;;0.40;;
22429;SDS011;11382;48.086;11.632;2023-11-19T14:48:15;1.23;;;0.80;;
22429;SDS011;11382;48.086;11.632;2023-11-19T14:50:44;0.30;;;0.20;;
22429;SDS011;11382;48.086;11.632;2023-11-19T14:53:12;1.23;;;0.68;;
22429;SDS011;11382;48.086;11.632;2023-11-19T14:55:40;0.50;;;0.50;;
22429;SDS011;11382;48.086;11.632;2023-11-19T14:58:08;0.30;;;0.30;;
22429;SDS011;11382;48.086;11.632;2023-11-19T15:00:42;1.95;;;1.50;;